sensor_id;sensor_type;location;lat;lon;timestamp;temperature;humidity
5492;DHT22;2768;53.540;10.224;2024-01-30T00:02:44;7.20;99.90
5492;DHT22;2768;53.540;10.224;2024-01-30T00:08:37;7.20;99.90
5492;DHT22;2768;53.540;10.224;2024-01-30T00:14:32;7.10;99.90
5492;DHT22;2768;53.540;10.224;2024-01-30T00:20:25;7.20;99.90
5492;DHT22;2768;53.540;10.224;2024-01-30T00:26:18;7.20;99.90
5492;DHT22;2768;53.540;10.224;2024-01-30T00:32:14;7.00;99.90
5492;DHT22;2768;53.540;10.224;2024-01-30T00:38:07;7.00;99.90
5492;DHT22;2768;53.540;10.224;2024-01-30T00:44:00;7.20;99.90
5492;DHT22;2768;53.540;10.224;2024-01-30T00:49:55;7.30;99.90
5492;DHT22;2768;53.540;10.224;2024-01-30T00:55:48;7.30;99.90
5492;DHT22;2768;53.540;10.224;2024-01-30T01:01:41;7.20;99.90
5492;DHT22;2768;53.540;10.224;2024-01-30T01:07:36;7.30;99.90
5492;DHT22;2768;53.540;10.224;2024-01-30T01:13:29;7.10;99.90
5492;DHT22;2768;53.540;10.224;2024-01-30T01:19:23;7.10;99.90
5492;DHT22;2768;53.540;10.224;2024-01-30T01:25:17;7.10;99.90
5492;DHT22;2768;53.540;10.224;2024-01-30T01:31:11;6.80;99.90
5492;DHT22;2768;53.540;10.224;2024-01-30T01:37:04;6.90;99.90
5492;DHT22;2768;53.540;10.224;2024-01-30T01:43:02;7.20;99.90
5492;DHT22;2768;53.540;10.224;2024-01-30T01:48:56;6.80;99.90
5492;DHT22;2768;53.540;10.224;2024-01-30T01:54:50;7.10;99.90
5492;DHT22;2768;53.540;10.224;2024-01-30T02:00:45;7.00;99.90
5492;DHT22;2768;53.540;10.224;2024-01-30T02:06:38;6.90;99.90
5492;DHT22;2768;53.540;10.224;2024-01-30T02:12:32;7.00;99.90
5492;DHT22;2768;53.540;10.224;2024-01-30T02:18:26;6.70;99.90
5492;DHT22;2768;53.540;10.224;2024-01-30T02:24:21;6.60;99.90
5492;DHT22;2768;53.540;10.224;2024-01-30T02:30:14;6.90;99.90
5492;DHT22;2768;53.540;10.224;2024-01-30T02:36:08;7.10;99.90
5492;DHT22;2768;53.540;10.224;2024-01-30T02:42:02;7.10;99.90
5492;DHT22;2768;53.540;10.224;2024-01-30T02:47:56;7.10;1.00
5492;DHT22;2768;53.540;10.224;2024-01-30T02:53:49;6.90;99.90
5492;DHT22;2768;53.540;10.224;2024-01-30T02:59:44;6.90;99.90
5492;DHT22;2768;53.540;10.224;2024-01-30T03:05:37;7.10;1.00
5492;DHT22;2768;53.540;10.224;2024-01-30T03:11:30;6.80;1.00
5492;DHT22;2768;53.540;10.224;2024-01-30T03:17:25;6.90;1.00
5492;DHT22;2768;53.540;10.224;2024-01-30T03:23:19;7.10;1.00
5492;DHT22;2768;53.540;10.224;2024-01-30T03:29:12;7.00;1.00
5492;DHT22;2768;53.540;10.224;2024-01-30T03:35:07;6.90;1.00
5492;DHT22;2768;53.540;10.224;2024-01-30T03:41:01;6.70;1.00
5492;DHT22;2768;53.540;10.224;2024-01-30T03:46:54;6.70;1.00
5492;DHT22;2768;53.540;10.224;2024-01-30T03:52:49;6.50;1.00
5492;DHT22;2768;53.540;10.224;2024-01-30T03:58:42;6.60;1.00
5492;DHT22;2768;53.540;10.224;2024-01-30T04:04:35;6.50;1.00
5492;DHT22;2768;53.540;10.224;2024-01-30T04:10:30;6.70;1.00
5492;DHT22;2768;53.540;10.224;2024-01-30T04:16:23;6.70;1.00
5492;DHT22;2768;53.540;10.224;2024-01-30T04:22:17;6.50;1.00
5492;DHT22;2768;53.540;10.224;2024-01-30T04:28:12;6.40;1.00
5492;DHT22;2768;53.540;10.224;2024-01-30T04:34:05;6.30;1.00
5492;DHT22;2768;53.540;10.224;2024-01-30T04:39:59;6.40;1.00
5492;DHT22;2768;53.540;10.224;2024-01-30T04:45:54;6.30;1.00
5492;DHT22;2768;53.540;10.224;2024-01-30T04:51:47;6.30;1.00
5492;DHT22;2768;53.540;10.224;2024-01-30T04:57:40;6.30;1.00
5492;DHT22;2768;53.540;10.224;2024-01-30T05:03:35;6.50;1.00
5492;DHT22;2768;53.540;10.224;2024-01-30T05:09:29;6.40;1.00
5492;DHT22;2768;53.540;10.224;2024-01-30T05:15:22;6.30;1.00
5492;DHT22;2768;53.540;10.224;2024-01-30T05:21:17;6.10;1.00
5492;DHT22;2768;53.540;10.224;2024-01-30T05:27:10;6.20;1.00
5492;DHT22;2768;53.540;10.224;2024-01-30T05:33:05;6.40;1.00
5492;DHT22;2768;53.540;10.224;2024-01-30T05:39:00;6.50;1.00
5492;DHT22;2768;53.540;10.224;2024-01-30T05:44:55;6.70;1.00
5492;DHT22;2768;53.540;10.224;2024-01-30T05:50:49;6.40;1.00
5492;DHT22;2768;53.540;10.224;2024-01-30T05:56:44;6.70;1.00
5492;DHT22;2768;53.540;10.224;2024-01-30T06:02:37;6.70;1.00
5492;DHT22;2768;53.540;10.224;2024-01-30T06:08:31;6.80;1.00
5492;DHT22;2768;53.540;10.224;2024-01-30T06:14:25;6.70;1.00
5492;DHT22;2768;53.540;10.224;2024-01-30T06:20:18;6.60;1.00
5492;DHT22;2768;53.540;10.224;2024-01-30T06:26:12;6.50;1.00
5492;DHT22;2768;53.540;10.224;2024-01-30T06:32:07;6.40;1.00
5492;DHT22;2768;53.540;10.224;2024-01-30T06:38:00;6.40;1.00
5492;DHT22;2768;53.540;10.224;2024-01-30T06:43:53;6.30;1.00
5492;DHT22;2768;53.540;10.224;2024-01-30T06:49:48;6.30;1.00
5492;DHT22;2768;53.540;10.224;2024-01-30T06:55:41;6.30;11.60
5492;DHT22;2768;53.540;10.224;2024-01-30T07:01:34;6.40;33.20
5492;DHT22;2768;53.540;10.224;2024-01-30T07:07:29;6.60;45.20
5492;DHT22;2768;53.540;10.224;2024-01-30T07:13:22;6.50;23.40
5492;DHT22;2768;53.540;10.224;2024-01-30T07:19:16;6.50;30.10
5492;DHT22;2768;53.540;10.224;2024-01-30T07:25:10;6.60;40.40
5492;DHT22;2768;53.540;10.224;2024-01-30T07:31:04;6.70;54.00
5492;DHT22;2768;53.540;10.224;2024-01-30T07:36:58;6.60;35.40
5492;DHT22;2768;53.540;10.224;2024-01-30T07:42:53;6.50;58.20
5492;DHT22;2768;53.540;10.224;2024-01-30T07:48:47;6.40;61.40
5492;DHT22;2768;53.540;10.224;2024-01-30T07:54:49;6.30;79.80
5492;DHT22;2768;53.540;10.224;2024-01-30T08:07:21;6.40;99.90
5492;DHT22;2768;53.540;10.224;2024-01-30T08:13:14;6.30;99.90
5492;DHT22;2768;53.540;10.224;2024-01-30T08:19:08;6.50;99.90
5492;DHT22;2768;53.540;10.224;2024-01-30T08:25:03;6.50;99.90
5492;DHT22;2768;53.540;10.224;2024-01-30T08:30:56;6.60;99.90
5492;DHT22;2768;53.540;10.224;2024-01-30T08:36:49;6.40;99.90
5492;DHT22;2768;53.540;10.224;2024-01-30T08:42:44;6.70;99.90
5492;DHT22;2768;53.540;10.224;2024-01-30T08:48:37;6.60;99.90
5492;DHT22;2768;53.540;10.224;2024-01-30T08:54:30;6.80;99.90
5492;DHT22;2768;53.540;10.224;2024-01-30T09:00:27;6.90;99.90
5492;DHT22;2768;53.540;10.224;2024-01-30T09:06:21;6.90;99.90
5492;DHT22;2768;53.540;10.224;2024-01-30T09:12:15;7.10;99.90
5492;DHT22;2768;53.540;10.224;2024-01-30T09:18:11;7.40;99.90
5492;DHT22;2768;53.540;10.224;2024-01-30T09:24:04;7.40;99.90
5492;DHT22;2768;53.540;10.224;2024-01-30T09:29:58;7.50;94.40
5492;DHT22;2768;53.540;10.224;2024-01-30T09:35:52;7.70;92.00
5492;DHT22;2768;53.540;10.224;2024-01-30T09:41:49;7.60;80.80
5492;DHT22;2768;53.540;10.224;2024-01-30T09:47:44;7.70;81.00
5492;DHT22;2768;53.540;10.224;2024-01-30T09:53:40;7.70;76.00
5492;DHT22;2768;53.540;10.224;2024-01-30T09:59:33;7.50;57.60
5492;DHT22;2768;53.540;10.224;2024-01-30T10:05:27;7.50;83.20
5492;DHT22;2768;53.540;10.224;2024-01-30T10:11:22;7.50;80.50
5492;DHT22;2768;53.540;10.224;2024-01-30T10:17:19;7.60;82.30
5492;DHT22;2768;53.540;10.224;2024-01-30T10:23:24;7.80;82.60
5492;DHT22;2768;53.540;10.224;2024-01-30T10:29:24;7.90;63.50
5492;DHT22;2768;53.540;10.224;2024-01-30T10:35:17;7.70;53.80
5492;DHT22;2768;53.540;10.224;2024-01-30T10:41:11;7.90;57.80
5492;DHT22;2768;53.540;10.224;2024-01-30T10:47:12;8.00;49.50
5492;DHT22;2768;53.540;10.224;2024-01-30T10:53:06;8.10;42.10
5492;DHT22;2768;53.540;10.224;2024-01-30T10:59:01;8.30;33.10
5492;DHT22;2768;53.540;10.224;2024-01-30T11:04:58;8.30;25.80
5492;DHT22;2768;53.540;10.224;2024-01-30T11:10:55;8.30;16.20
5492;DHT22;2768;53.540;10.224;2024-01-30T11:16:50;8.40;19.30
5492;DHT22;2768;53.540;10.224;2024-01-30T11:22:44;8.50;20.10
5492;DHT22;2768;53.540;10.224;2024-01-30T11:28:38;8.70;21.70
5492;DHT22;2768;53.540;10.224;2024-01-30T11:34:32;8.70;7.80
5492;DHT22;2768;53.540;10.224;2024-01-30T11:40:29;8.60;6.00
5492;DHT22;2768;53.540;10.224;2024-01-30T11:46:25;8.70;7.70
5492;DHT22;2768;53.540;10.224;2024-01-30T11:52:18;8.80;17.30
5492;DHT22;2768;53.540;10.224;2024-01-30T11:58:13;8.70;22.20
5492;DHT22;2768;53.540;10.224;2024-01-30T12:04:06;8.70;29.20
5492;DHT22;2768;53.540;10.224;2024-01-30T12:10:02;8.70;36.80
5492;DHT22;2768;53.540;10.224;2024-01-30T12:15:59;8.80;46.80
5492;DHT22;2768;53.540;10.224;2024-01-30T12:21:56;8.90;51.40
5492;DHT22;2768;53.540;10.224;2024-01-30T12:27:52;8.90;52.30
5492;DHT22;2768;53.540;10.224;2024-01-30T12:33:50;9.00;57.90
5492;DHT22;2768;53.540;10.224;2024-01-30T12:39:43;9.00;63.20
5492;DHT22;2768;53.540;10.224;2024-01-30T12:45:37;9.10;69.10
5492;DHT22;2768;53.540;10.224;2024-01-30T12:51:34;9.10;75.10
5492;DHT22;2768;53.540;10.224;2024-01-30T12:57:27;9.10;82.20
5492;DHT22;2768;53.540;10.224;2024-01-30T13:03:20;9.20;90.60
5492;DHT22;2768;53.540;10.224;2024-01-30T13:09:16;9.20;93.10
5492;DHT22;2768;53.540;10.224;2024-01-30T13:15:09;9.30;97.00
5492;DHT22;2768;53.540;10.224;2024-01-30T13:21:03;9.30;99.90
5492;DHT22;2768;53.540;10.224;2024-01-30T13:26:58;9.40;99.90
5492;DHT22;2768;53.540;10.224;2024-01-30T13:32:51;9.40;99.90
5492;DHT22;2768;53.540;10.224;2024-01-30T13:38:44;9.40;99.90
5492;DHT22;2768;53.540;10.224;2024-01-30T13:44:39;9.40;99.90
5492;DHT22;2768;53.540;10.224;2024-01-30T13:50:32;9.50;99.90
5492;DHT22;2768;53.540;10.224;2024-01-30T13:56:26;9.50;99.90
5492;DHT22;2768;53.540;10.224;2024-01-30T14:02:21;9.50;99.90
5492;DHT22;2768;53.540;10.224;2024-01-30T14:08:15;9.60;99.90
5492;DHT22;2768;53.540;10.224;2024-01-30T14:14:09;9.60;99.90
5492;DHT22;2768;53.540;10.224;2024-01-30T14:20:04;9.60;99.90
5492;DHT22;2768;53.540;10.224;2024-01-30T14:25:57;9.60;99.90
5492;DHT22;2768;53.540;10.224;2024-01-30T14:31:50;9.60;99.90
5492;DHT22;2768;53.540;10.224;2024-01-30T14:37:45;9.60;99.90
5492;DHT22;2768;53.540;10.224;2024-01-30T14:43:39;9.60;99.90
5492;DHT22;2768;53.540;10.224;2024-01-30T14:49:32;9.60;99.90
5492;DHT22;2768;53.540;10.224;2024-01-30T14:55:26;9.70;99.90
5492;DHT22;2768;53.540;10.224;2024-01-30T15:01:20;9.70;99.90
5492;DHT22;2768;53.540;10.224;2024-01-30T15:07:13;9.70;99.90
5492;DHT22;2768;53.540;10.224;2024-01-30T15:13:20;9.70;99.90
5492;DHT22;2768;53.540;10.224;2024-01-30T15:19:13;9.70;99.90
5492;DHT22;2768;53.540;10.224;2024-01-30T15:25:09;9.70;99.90
5492;DHT22;2768;53.540;10.224;2024-01-30T15:31:04;9.70;99.90
5492;DHT22;2768;53.540;10.224;2024-01-30T15:36:57;9.70;99.90
5492;DHT22;2768;53.540;10.224;2024-01-30T15:42:51;9.70;99.90
5492;DHT22;2768;53.540;10.224;2024-01-30T15:48:45;9.80;99.90
5492;DHT22;2768;53.540;10.224;2024-01-30T15:54:39;9.80;99.90
5492;DHT22;2768;53.540;10.224;2024-01-30T16:00:33;9.80;99.90
5492;DHT22;2768;53.540;10.224;2024-01-30T16:06:27;9.80;99.90
5492;DHT22;2768;53.540;10.224;2024-01-30T16:12:21;9.80;99.90
5492;DHT22;2768;53.540;10.224;2024-01-30T16:18:14;9.80;99.90
5492;DHT22;2768;53.540;10.224;2024-01-30T16:24:09;9.80;99.90
5492;DHT22;2768;53.540;10.224;2024-01-30T16:30:03;9.80;99.90
5492;DHT22;2768;53.540;10.224;2024-01-30T16:35:56;9.80;99.90
5492;DHT22;2768;53.540;10.224;2024-01-30T16:41:51;9.80;99.90
5492;DHT22;2768;53.540;10.224;2024-01-30T16:47:44;9.80;99.90
5492;DHT22;2768;53.540;10.224;2024-01-30T16:53:37;9.80;99.90
5492;DHT22;2768;53.540;10.224;2024-01-30T16:59:32;9.80;99.90
5492;DHT22;2768;53.540;10.224;2024-01-30T17:05:25;9.80;99.90
5492;DHT22;2768;53.540;10.224;2024-01-30T17:11:19;9.80;99.90
5492;DHT22;2768;53.540;10.224;2024-01-30T17:17:13;9.80;99.90
5492;DHT22;2768;53.540;10.224;2024-01-30T17:23:08;9.80;99.90
5492;DHT22;2768;53.540;10.224;2024-01-30T17:29:02;9.80;99.90
5492;DHT22;2768;53.540;10.224;2024-01-30T17:34:57;9.80;99.90
5492;DHT22;2768;53.540;10.224;2024-01-30T17:40:51;9.80;99.90
5492;DHT22;2768;53.540;10.224;2024-01-30T17:47:00;9.80;99.90
5492;DHT22;2768;53.540;10.224;2024-01-30T17:52:55;9.80;99.90
5492;DHT22;2768;53.540;10.224;2024-01-30T17:58:49;9.90;99.90
5492;DHT22;2768;53.540;10.224;2024-01-30T18:04:43;9.90;99.90
5492;DHT22;2768;53.540;10.224;2024-01-30T18:10:37;9.90;99.90
5492;DHT22;2768;53.540;10.224;2024-01-30T18:16:31;9.90;99.90
5492;DHT22;2768;53.540;10.224;2024-01-30T18:22:25;10.00;99.90
5492;DHT22;2768;53.540;10.224;2024-01-30T18:28:20;10.00;99.90
5492;DHT22;2768;53.540;10.224;2024-01-30T18:34:13;10.00;99.90
5492;DHT22;2768;53.540;10.224;2024-01-30T18:40:07;10.00;99.90
5492;DHT22;2768;53.540;10.224;2024-01-30T18:46:02;10.10;99.90
5492;DHT22;2768;53.540;10.224;2024-01-30T18:51:56;10.00;99.90
5492;DHT22;2768;53.540;10.224;2024-01-30T18:57:50;10.20;99.90
5492;DHT22;2768;53.540;10.224;2024-01-30T19:03:46;10.10;99.90
5492;DHT22;2768;53.540;10.224;2024-01-30T19:09:40;10.10;99.90
5492;DHT22;2768;53.540;10.224;2024-01-30T19:15:33;10.10;99.90
5492;DHT22;2768;53.540;10.224;2024-01-30T19:21:28;10.10;72.40
5492;DHT22;2768;53.540;10.224;2024-01-30T19:27:22;10.10;42.30
5492;DHT22;2768;53.540;10.224;2024-01-30T19:33:15;10.10;32.50
5492;DHT22;2768;53.540;10.224;2024-01-30T19:39:10;10.10;16.20
5492;DHT22;2768;53.540;10.224;2024-01-30T19:45:06;10.00;1.30
5492;DHT22;2768;53.540;10.224;2024-01-30T19:51:01;9.90;1.00
5492;DHT22;2768;53.540;10.224;2024-01-30T19:56:56;9.90;1.00
5492;DHT22;2768;53.540;10.224;2024-01-30T20:02:50;9.90;1.20
5492;DHT22;2768;53.540;10.224;2024-01-30T20:08:43;9.80;11.90
5492;DHT22;2768;53.540;10.224;2024-01-30T20:14:39;9.70;25.70
5492;DHT22;2768;53.540;10.224;2024-01-30T20:20:33;9.70;46.20
5492;DHT22;2768;53.540;10.224;2024-01-30T20:26:28;9.70;69.90
5492;DHT22;2768;53.540;10.224;2024-01-30T20:32:23;9.60;92.50
5492;DHT22;2768;53.540;10.224;2024-01-30T20:38:16;9.50;99.90
5492;DHT22;2768;53.540;10.224;2024-01-30T20:44:10;9.50;99.90
5492;DHT22;2768;53.540;10.224;2024-01-30T20:50:08;9.40;99.90
5492;DHT22;2768;53.540;10.224;2024-01-30T20:56:02;9.40;99.90
5492;DHT22;2768;53.540;10.224;2024-01-30T21:01:56;9.40;99.90
5492;DHT22;2768;53.540;10.224;2024-01-30T21:07:52;9.30;99.90
5492;DHT22;2768;53.540;10.224;2024-01-30T21:13:46;9.30;99.90
5492;DHT22;2768;53.540;10.224;2024-01-30T21:19:41;9.20;99.90
5492;DHT22;2768;53.540;10.224;2024-01-30T21:25:36;9.10;99.90
5492;DHT22;2768;53.540;10.224;2024-01-30T21:31:30;9.10;99.90
5492;DHT22;2768;53.540;10.224;2024-01-30T21:37:24;9.00;99.90
5492;DHT22;2768;53.540;10.224;2024-01-30T21:43:19;8.80;99.90
5492;DHT22;2768;53.540;10.224;2024-01-30T21:49:13;8.70;99.90
5492;DHT22;2768;53.540;10.224;2024-01-30T21:55:08;8.60;99.90
5492;DHT22;2768;53.540;10.224;2024-01-30T22:01:03;8.50;99.90
5492;DHT22;2768;53.540;10.224;2024-01-30T22:06:57;8.40;99.90
5492;DHT22;2768;53.540;10.224;2024-01-30T22:12:52;8.30;99.90
5492;DHT22;2768;53.540;10.224;2024-01-30T22:18:47;8.30;99.90
5492;DHT22;2768;53.540;10.224;2024-01-30T22:24:40;8.10;99.90
5492;DHT22;2768;53.540;10.224;2024-01-30T22:30:34;7.90;99.90
5492;DHT22;2768;53.540;10.224;2024-01-30T22:36:33;7.90;99.90
5492;DHT22;2768;53.540;10.224;2024-01-30T22:42:27;7.90;99.90
5492;DHT22;2768;53.540;10.224;2024-01-30T22:48:21;8.00;99.90
5492;DHT22;2768;53.540;10.224;2024-01-30T22:54:16;7.80;99.90
5492;DHT22;2768;53.540;10.224;2024-01-30T23:00:11;7.70;99.90
5492;DHT22;2768;53.540;10.224;2024-01-30T23:06:09;7.60;99.90
5492;DHT22;2768;53.540;10.224;2024-01-30T23:12:04;7.50;99.90
5492;DHT22;2768;53.540;10.224;2024-01-30T23:17:59;7.60;99.90
5492;DHT22;2768;53.540;10.224;2024-01-30T23:23:52;7.40;99.90
5492;DHT22;2768;53.540;10.224;2024-01-30T23:29:47;7.30;99.90
5492;DHT22;2768;53.540;10.224;2024-01-30T23:35:40;7.30;99.90
5492;DHT22;2768;53.540;10.224;2024-01-30T23:41:33;7.30;99.90
5492;DHT22;2768;53.540;10.224;2024-01-30T23:47:28;7.30;99.90
5492;DHT22;2768;53.540;10.224;2024-01-30T23:53:22;7.20;99.90
5492;DHT22;2768;53.540;10.224;2024-01-30T23:59:15;7.20;99.90
